| Station | Date | Time | Temp (°F) | RH (%) | Dew Pt (°F) | Wind Dir (°) | Wind Spd (mph) | Wind Gust (mph) | Solar Rad (W/m2) | Pressure (mb) | Daily Min Temp (°F) | Daily Max Temp (°F) | Daily Max Wind (mph) | Daily Rain (In) | Yest MinT (°F) | Yest MaxT (°F) | Yest MaxGst (mph) | Yest Precip (In) | MinBV Day (V) |
|---|---|---|---|---|---|---|---|---|---|---|---|---|---|---|---|---|---|---|---|
| MWA Office | 9/2/26 | 1345 | 85.2 0.7 | 13 1 | 28.4 1.8 | SW | 215 | 9.8 1.4 | 17.8 1.8 | 912 15 | 1,010.9 0.1 | 55.8 10.9 | 86.1 0.2 | 23.4 5.5 | 0.00 | 66.7 | 86.3 | 30.5 | 0.00 | 12.4 0.0 |
| MWA OPS | 9/2/26 | 1345 | 83.5 0.6 | 14 3 | 28.8 3.8 | SW | 225 | 15.4 1.6 | 24.8 2.6 | 944 7 | 1,010.1 0.5 | 60.6 0.8 | 84.4 0.8 | 25.9 0.9 | 0.00 | 61.4 | 84.2 | 26.7 | 0.00 | 12.8 0.0 |
| LV-PS | 9/2/26 | 1345 | 90.0 0.3 | 9 3 | 24.0 6.4 | ENE | 72 | 5.4 7.4 | 17.1 6.6 | 916 1 | 1,007.4 0.3 | 54.5 5.2 | 90.8 0.2 | 17.1 6.6 | 0.00 | 59.7 | 90.6 | 28.3 | 0.00 | 12.7 0.0 |
| JV-PS | 9/2/26 | 1345 | 88.2 0.5 | 10 5 | 25.1 9.7 | E | 94 | 4.4 0.1 | 9.0 3.1 | 923 12 | 1,008.3 0.4 | 55.9 4.7 | 89.7 0.2 | 13.2 3.3 | 0.00 | 60.6 | 91.6 | 34.4 | 0.00 | 12.9 0.0 |
| BDVWA | 9/2/26 | 1345 | 85.7 0.3 | 10 7 | 22.1 13.8 | S | 180 | 11.4 1.9 | 22.6 1.8 | 956 16 | 1,007.8 0.3 | 60.0 3.6 | 86.8 0.6 | 28.7 4.2 | 0.00 | 63.6 | 87.6 | 32.9 | 0.00 | 12.8 0.0 |
| Newberry Springs | 9/2/26 | 1345 | 89.2 2.4 | 14 0 | 34.3 2.7 | N | 358 | 3.9 1.8 | 9.9 1.8 | 951 1 | 1,009.8 0.9 | 63.2 3.8 | 90.6 2.1 | 22.1 4.8 | 0.00 | 66.9 | 95.8 | 28.7 | 0.00 | 12.9 0.0 |
| Pinon Hills | 9/2/26 | 1345 | 77.1 1.9 | 15 6 | 25.8 6.2 | NNE | 26 | 4.4 3.8 | 11.4 12.0 | 921 10 | 1,009.3 0.5 | 56.7 1.9 | 78.2 2.0 | 23.9 6.4 | 0.00 | 54.8 | 77.5 | 32.9 | 0.00 | 12.8 0.0 |
| Helendale | 9/2/26 | 1345 | 88.9 0.5 | 12 7 | 29.4 11.3 | S | 180 | 7.7 1.0 | 15.6 4.0 | 878 6 | 1,009.0 0.2 | 47.2 7.8 | 90.5 0.9 | 16.4 3.1 | 0.00 | 54.9 | 92.6 | 28.3 | 0.00 | 12.7 0.0 |
| Lenwood | 9/2/26 | 1345 | 88.5 1.5 | 9 4 | 23.8 9.1 | WSW | 249 | 7.4 0.6 | 17.3 3.5 | 945 11 | 1,009.3 0.6 | 51.8 4.8 | 89.2 1.9 | 22.4 2.6 | 0.00 | 56.6 | 93.1 | 31.6 | 0.00 | 12.7 0.0 |
| Oak Hills | 9/2/26 | 1345 | 75.5 1.3 | 21 2 | 32.9 3.9 | SSW | 193 | 8.0 2.1 | 20.4 4.2 | 938 0 | 1,010.8 0.8 | 54.3 3.2 | 76.3 1.6 | 24.6 0.2 | 0.00 | 57.5 | 79.4 | 24.8 | 0.00 | 12.9 0.0 |
| Pipes Wash Canyon | 9/2/26 | 1345 | 83.4 1.0 | 12 3 | 24.5 6.8 | WNW | 299 | 2.9 0.2 | 12.3 2.8 | 945 11 | 1,006.5 0.2 | 57.2 4.4 | 83.8 1.2 | 18.6 5.0 | 0.00 | 58.4 | 86.0 | 23.7 | 0.00 | 12.8 0.0 |
| Max | 90.0 | 21 | 34.3 | - | 15.4 | 24.8 | 956 | 1,010.9 | 63.2 | 90.8 | 28.7 | 0.00 | 66.9 | 95.8 | 34.4 | 0.00 | 12.9 | ||
| Avg | 85.0 | 13 | 27.2 | - | 7.3 | 16.2 | 930 | 1,009.0 | - | - | - | - | - | - | - | - | - | ||
| Min | 75.5 | 9 | 22.1 | - | 2.9 | 9.0 | 878 | 1,006.5 | 47.2 | 76.3 | 13.2 | 0.00 | 54.8 | 77.5 | 23.7 | 0.00 | 12.4 |
| Station | Date | Time | Latest Rain (In) | Daily Rain (In) | Yest Precip (In) | Month Precip (In) | Season Precip (In) | Daily ETo (in) | Yest ETo (In) | 7 Day ETo (in) |
|---|---|---|---|---|---|---|---|---|---|---|
| MWA Office | 9/2/26 | 1345 | 0.00 | 0.00 | 0.00 | 0.00 | 0.00 | 0.134 | 0.30 | 1.88 |
| MWA OPS | 9/2/26 | 1345 | 0.00 | 0.00 | 0.00 | 0.00 | 0.00 | 0.150 | 0.32 | 2.05 |
| LV-PS | 9/2/26 | 1345 | 0.00 | 0.00 | 0.00 | 0.00 | 0.34 | 0.117 | 0.28 | 1.98 |
| JV-PS | 9/2/26 | 1345 | 0.00 | 0.00 | 0.00 | 0.00 | 0.06 | 0.120 | 0.28 | 1.95 |
| BDVWA | 9/2/26 | 1345 | 0.00 | 0.00 | 0.00 | 0.00 | 0.00 | 0.132 | 0.32 | 2.13 |
| Newberry Springs | 9/2/26 | 1345 | 0.00 | 0.00 | 0.00 | 0.00 | 1.97 | 0.152 | 0.34 | 2.36 |
| Pinon Hills | 9/2/26 | 1345 | 0.00 | 0.00 | 0.00 | 0.00 | 0.19 | 0.119 | 0.25 | 1.78 |
| Helendale | 9/2/26 | 1345 | 0.00 | 0.00 | 0.00 | 0.00 | 0.00 | 0.109 | 0.28 | 2.11 |
| Lenwood | 9/2/26 | 1345 | 0.00 | 0.00 | 0.00 | 0.00 | 0.09 | 0.121 | 0.32 | 2.12 |
| Oak Hills | 9/2/26 | 1345 | 0.00 | 0.00 | 0.00 | 0.00 | 0.00 | 0.134 | 0.25 | 1.75 |
| Pipes Wash Canyon | 9/2/26 | 1345 | 0.00 | 0.00 | 0.00 | 0.00 | 0.00 | 0.129 | 0.23 | 1.68 |
| Max | 0.00 | 0.00 | 0.00 | 0.00 | 1.97 | 0.152 | 0.34 | 2.36 | ||
| Avg | 0.00 | - | - | - | - | - | - | - | ||
| Min | 0.00 | 0.00 | 0.00 | 0.00 | 0.00 | 0.109 | 0.23 | 1.68 |